Time;durP1;ratioP1;P1;durP2;ratioP2;P2;SDS_P1;SDS_P2;PMS_P1;PMS_P2;Temp;Humidity;BMP_temperature;BMP_pressure;BME280_temperature;BME280_humidity;BME280_pressure;Samples;Min_cycle;Max_cycle;Signal;HPM_P1;HPM_P2
2021/10/21 00:01:01;;;;;;;11.60;5.30;;;16.40;91.80;;;;;;5013667;28;20207;-67
2021/10/21 00:03:30;;;;;;;8.17;4.93;;;16.40;91.80;;;;;;5013253;28;20215;-66
2021/10/21 00:05:57;;;;;;;9.43;5.17;;;16.40;91.90;;;;;;5005816;28;20649;-66
2021/10/21 00:08:24;;;;;;;6.50;4.70;;;16.30;91.80;;;;;;5013242;28;20214;-66
2021/10/21 00:10:51;;;;;;;7.70;5.20;;;16.30;91.80;;;;;;5010217;28;20203;-66
2021/10/21 00:13:18;;;;;;;7.77;5.50;;;16.30;91.80;;;;;;5013088;28;20545;-68
2021/10/21 00:15:45;;;;;;;7.57;4.70;;;16.30;91.90;;;;;;5012829;28;20650;-66
2021/10/21 00:18:12;;;;;;;7.23;5.50;;;16.20;91.90;;;;;;5012782;28;20211;-67
2021/10/21 00:20:41;;;;;;;6.83;5.07;;;16.20;92.00;;;;;;5012912;28;20207;-66
2021/10/21 00:23:07;;;;;;;8.13;4.83;;;16.20;92.10;;;;;;5012716;28;20210;-66
2021/10/21 00:25:35;;;;;;;8.20;5.40;;;16.10;92.10;;;;;;5012149;28;20726;-67
2021/10/21 00:28:02;;;;;;;7.23;5.10;;;16.10;92.20;;;;;;5012381;28;20266;-66
2021/10/21 00:30:29;;;;;;;8.70;5.17;;;16.00;92.30;;;;;;5012848;28;20624;-66
2021/10/21 00:32:57;;;;;;;8.13;5.40;;;16.00;92.50;;;;;;5013017;28;20297;-66
2021/10/21 00:35:24;;;;;;;8.30;5.80;;;15.90;92.50;;;;;;5012687;28;20219;-66
2021/10/21 00:37:52;;;;;;;9.60;5.17;;;15.90;92.70;;;;;;5012806;28;20310;-66
2021/10/21 00:40:19;;;;;;;9.07;5.90;;;15.80;92.80;;;;;;5012682;28;20265;-66
2021/10/21 00:42:46;;;;;;;5.83;5.23;;;15.80;92.90;;;;;;5012623;28;20215;-66
2021/10/21 00:45:12;;;;;;;6.20;5.10;;;15.70;92.90;;;;;;5011530;28;20211;-66
2021/10/21 00:47:39;;;;;;;7.43;5.27;;;15.70;93.00;;;;;;5012834;28;20222;-65
2021/10/21 00:50:07;;;;;;;7.77;5.40;;;15.60;93.00;;;;;;5012920;28;20761;-66
2021/10/21 00:52:34;;;;;;;7.77;5.10;;;15.60;93.10;;;;;;5011949;28;20305;-66
2021/10/21 00:55:04;;;;;;;5.33;4.77;;;15.60;93.20;;;;;;5011069;28;20227;-66
2021/10/21 00:57:31;;;;;;;7.27;5.20;;;15.50;93.20;;;;;;5011325;28;20619;-66
2021/10/21 00:59:58;;;;;;;9.40;5.67;;;15.50;93.30;;;;;;5012412;28;20211;-65
2021/10/21 01:02:25;;;;;;;8.33;5.23;;;15.50;93.40;;;;;;5012069;28;20207;-65
2021/10/21 01:04:52;;;;;;;9.47;5.73;;;15.40;93.40;;;;;;5011787;28;20206;-65
2021/10/21 01:07:19;;;;;;;5.63;5.03;;;15.40;93.40;;;;;;5011834;28;20837;-64
2021/10/21 01:09:46;;;;;;;6.03;5.30;;;15.40;93.50;;;;;;5011616;28;20302;-66
2021/10/21 01:12:14;;;;;;;6.87;5.60;;;15.40;93.50;;;;;;5011898;28;20586;-65
2021/10/21 01:14:42;;;;;;;7.90;5.30;;;15.40;93.60;;;;;;5011616;28;20245;-65
2021/10/21 01:17:09;;;;;;;7.67;5.40;;;15.30;93.60;;;;;;5012194;28;20225;-65
2021/10/21 01:19:36;;;;;;;7.23;5.53;;;15.30;93.70;;;;;;5011963;28;20735;-65
2021/10/21 01:22:04;;;;;;;7.57;5.10;;;15.30;93.70;;;;;;5002912;28;20212;-66
2021/10/21 01:24:31;;;;;;;7.17;5.43;;;15.30;93.80;;;;;;5006761;28;20218;-66
2021/10/21 01:26:58;;;;;;;6.37;4.97;;;15.30;93.80;;;;;;5011920;28;20211;-66
2021/10/21 01:29:26;;;;;;;7.40;5.20;;;15.30;93.80;;;;;;5011595;28;20203;-66
2021/10/21 01:31:55;;;;;;;6.40;5.07;;;15.30;93.90;;;;;;5012332;28;20211;-67
2021/10/21 01:34:22;;;;;;;7.33;5.10;;;15.30;93.90;;;;;;5011388;28;20302;-66
2021/10/21 01:36:53;;;;;;;7.07;5.67;;;15.30;93.90;;;;;;5011600;28;20207;-66
2021/10/21 01:39:22;;;;;;;5.73;5.10;;;15.30;93.90;;;;;;5011780;28;20211;-66
2021/10/21 01:41:50;;;;;;;6.57;5.17;;;15.20;93.90;;;;;;5011659;28;20628;-66
2021/10/21 01:44:17;;;;;;;17.07;6.27;;;15.20;93.90;;;;;;5011974;28;20215;-66
2021/10/21 01:46:44;;;;;;;7.90;5.57;;;15.20;93.90;;;;;;5011052;28;20211;-66
2021/10/21 01:49:11;;;;;;;6.43;5.33;;;15.20;93.90;;;;;;5011208;28;20577;-67
2021/10/21 01:51:38;;;;;;;10.53;6.50;;;15.20;93.90;;;;;;5010733;28;20296;-66
2021/10/21 01:54:05;;;;;;;8.90;5.83;;;15.10;93.90;;;;;;5011436;28;20213;-67
2021/10/21 01:56:33;;;;;;;9.67;5.30;;;15.10;94.30;;;;;;5007842;28;20247;-67
2021/10/21 01:59:00;;;;;;;7.03;5.50;;;15.10;94.10;;;;;;5010972;28;20207;-66
2021/10/21 02:01:27;;;;;;;7.90;6.13;;;15.10;94.10;;;;;;5011261;28;20218;-66
2021/10/21 02:03:54;;;;;;;7.70;5.80;;;15.10;94.40;;;;;;5010648;28;20211;-67
2021/10/21 02:06:21;;;;;;;6.07;5.47;;;15.00;94.10;;;;;;5010378;28;20210;-67
2021/10/21 02:08:47;;;;;;;6.07;5.40;;;15.00;94.10;;;;;;5011225;28;20674;-67
2021/10/21 02:11:14;;;;;;;6.17;5.17;;;15.00;94.20;;;;;;5010795;28;20207;-66
2021/10/21 02:13:43;;;;;;;8.53;5.57;;;15.00;94.20;;;;;;5010835;28;20211;-67
2021/10/21 02:16:10;;;;;;;5.80;5.13;;;15.00;94.20;;;;;;5008246;28;20680;-66
2021/10/21 02:18:37;;;;;;;7.70;6.10;;;14.90;94.20;;;;;;5010572;28;20217;-66
2021/10/21 02:21:04;;;;;;;10.43;6.00;;;14.90;94.30;;;;;;5010413;28;20217;-66
2021/10/21 02:23:31;;;;;;;6.47;5.60;;;15.00;94.30;;;;;;5010621;28;20215;-65
2021/10/21 02:25:58;;;;;;;8.93;6.00;;;14.90;94.60;;;;;;5010560;28;20290;-66
2021/10/21 02:28:25;;;;;;;8.53;5.80;;;14.90;94.30;;;;;;5010702;28;20207;-66
2021/10/21 02:30:53;;;;;;;7.23;6.03;;;14.80;94.30;;;;;;5010315;28;20227;-66
2021/10/21 02:33:20;;;;;;;10.33;6.40;;;14.80;94.30;;;;;;5010972;28;20199;-66
2021/10/21 02:35:47;;;;;;;7.33;5.97;;;14.80;94.40;;;;;;5010094;28;20314;-66
2021/10/21 02:38:14;;;;;;;7.00;5.83;;;14.80;94.40;;;;;;5010473;28;20211;-66
2021/10/21 02:40:41;;;;;;;7.83;6.17;;;14.80;94.40;;;;;;5011386;28;20207;-66
2021/10/21 02:43:09;;;;;;;9.40;6.00;;;14.80;94.40;;;;;;5010905;28;20211;-67
2021/10/21 02:45:36;;;;;;;10.13;5.80;;;14.80;94.40;;;;;;5006392;28;20207;-67
2021/10/21 02:48:05;;;;;;;9.63;6.30;;;14.80;94.40;;;;;;5011346;28;20207;-66
2021/10/21 02:50:32;;;;;;;8.43;6.20;;;14.80;94.40;;;;;;5009963;28;20282;-66
2021/10/21 02:52:59;;;;;;;10.03;6.00;;;14.80;94.40;;;;;;5011002;28;20326;-66
2021/10/21 02:55:26;;;;;;;8.87;6.10;;;14.80;94.40;;;;;;5009346;28;20216;-65
2021/10/21 02:57:53;;;;;;;7.47;5.97;;;14.80;94.50;;;;;;5010540;28;20231;-66
2021/10/21 03:00:19;;;;;;;9.63;6.60;;;14.70;94.50;;;;;;5009796;28;20214;-67
2021/10/21 03:02:46;;;;;;;10.57;6.37;;;14.80;95.00;;;;;;5010380;28;20207;-66
2021/10/21 03:05:14;;;;;;;7.97;5.87;;;14.70;94.70;;;;;;5010499;28;20682;-67
2021/10/21 03:07:41;;;;;;;10.63;6.57;;;14.70;94.70;;;;;;5010634;28;20210;-65
2021/10/21 03:10:09;;;;;;;9.50;6.43;;;14.70;94.80;;;;;;5010645;28;20218;-65
2021/10/21 03:12:36;;;;;;;10.67;6.50;;;14.80;94.90;;;;;;5010380;28;20571;-66
2021/10/21 03:15:03;;;;;;;7.77;6.17;;;14.70;94.90;;;;;;5013556;28;20211;-66
2021/10/21 03:17:30;;;;;;;12.17;7.63;;;14.70;94.90;;;;;;5007737;28;20224;-66
2021/10/21 03:19:57;;;;;;;8.47;6.37;;;14.70;95.00;;;;;;5002199;28;20207;-65
2021/10/21 03:22:25;;;;;;;9.67;6.90;;;14.70;95.00;;;;;;5014223;28;20218;-66
2021/10/21 03:24:52;;;;;;;10.63;7.17;;;14.70;95.00;;;;;;5013843;28;20314;-65
2021/10/21 03:27:19;;;;;;;11.27;6.03;;;14.70;95.10;;;;;;5013968;28;20207;-66
2021/10/21 03:29:46;;;;;;;8.13;6.37;;;14.80;95.10;;;;;;5014029;28;20317;-66
2021/10/21 03:32:13;;;;;;;7.27;6.40;;;14.80;95.20;;;;;;5013260;28;20302;-66
2021/10/21 03:34:40;;;;;;;8.63;6.53;;;14.80;95.20;;;;;;5013886;28;20208;-66
2021/10/21 03:37:06;;;;;;;9.60;6.63;;;14.80;95.20;;;;;;5013986;28;20223;-67
2021/10/21 03:39:35;;;;;;;8.40;6.70;;;14.80;95.20;;;;;;5013237;28;20207;-66
2021/10/21 03:42:02;;;;;;;9.50;7.87;;;14.80;95.20;;;;;;5013541;28;20262;-67
2021/10/21 03:44:29;;;;;;;10.53;6.77;;;14.80;95.20;;;;;;5013667;28;20653;-66
2021/10/21 03:46:56;;;;;;;8.90;6.70;;;14.80;95.30;;;;;;5013761;28;20204;-65
2021/10/21 03:49:23;;;;;;;9.10;6.57;;;14.80;95.40;;;;;;5013674;28;20211;-65
2021/10/21 03:51:50;;;;;;;8.10;6.67;;;14.70;95.40;;;;;;5012624;28;20246;-66
2021/10/21 03:54:16;;;;;;;11.83;6.70;;;14.80;95.60;;;;;;5013441;28;20203;-65
2021/10/21 03:56:45;;;;;;;8.77;6.80;;;14.60;95.60;;;;;;5012660;28;20239;-66
2021/10/21 03:59:12;;;;;;;9.60;7.00;;;14.60;95.70;;;;;;5013296;28;20649;-65
2021/10/21 04:01:39;;;;;;;8.20;6.80;;;14.60;95.70;;;;;;5013363;28;20210;-66
2021/10/21 04:04:05;;;;;;;12.53;6.67;;;14.60;95.90;;;;;;5013089;28;20290;-70
2021/10/21 04:06:33;;;;;;;8.60;6.73;;;14.60;96.00;;;;;;5013679;28;20430;-66
2021/10/21 04:08:59;;;;;;;7.77;6.50;;;14.60;96.00;;;;;;5013041;28;20207;-66
2021/10/21 04:11:26;;;;;;;13.33;7.13;;;14.60;96.40;;;;;;4999741;28;20239;-65
2021/10/21 04:13:55;;;;;;;8.13;6.37;;;14.60;96.20;;;;;;5013329;28;20582;-66
2021/10/21 04:16:21;;;;;;;10.80;6.60;;;14.50;96.20;;;;;;5012311;28;20964;-66
2021/10/21 04:18:48;;;;;;;11.03;7.13;;;14.50;96.40;;;;;;5013437;28;20215;-66
2021/10/21 04:21:16;;;;;;;10.63;6.40;;;14.50;96.40;;;;;;5013147;28;20306;-65
2021/10/21 04:23:43;;;;;;;10.93;6.43;;;14.40;96.50;;;;;;5012618;28;20290;-66
2021/10/21 04:26:10;;;;;;;11.47;7.37;;;14.40;97.00;;;;;;5012732;28;20211;-66
2021/10/21 04:28:37;;;;;;;9.20;6.90;;;14.30;96.60;;;;;;5011923;28;20211;-65
2021/10/21 04:31:05;;;;;;;9.07;6.93;;;14.40;96.70;;;;;;5011897;28;20221;-66
2021/10/21 04:33:32;;;;;;;9.47;6.33;;;14.40;96.70;;;;;;4998387;28;20242;-66
2021/10/21 04:35:59;;;;;;;12.63;7.00;;;14.40;96.80;;;;;;5012897;28;20574;-65
2021/10/21 04:38:26;;;;;;;8.17;6.47;;;14.40;96.80;;;;;;5012026;28;20207;-67
2021/10/21 04:40:53;;;;;;;9.03;6.77;;;14.40;96.80;;;;;;5011583;28;20211;-66
2021/10/21 04:43:19;;;;;;;7.53;6.53;;;14.40;96.80;;;;;;5011970;28;20216;-66
2021/10/21 04:45:46;;;;;;;8.70;6.50;;;14.40;96.90;;;;;;5012337;28;20207;-66
2021/10/21 04:48:15;;;;;;;9.80;6.73;;;14.40;96.90;;;;;;5012184;28;20590;-65
2021/10/21 04:50:42;;;;;;;9.13;6.80;;;14.30;96.90;;;;;;5011953;28;20313;-66
2021/10/21 04:53:09;;;;;;;10.50;6.97;;;14.30;96.90;;;;;;5006212;28;20297;-66
2021/10/21 04:55:36;;;;;;;9.63;6.13;;;14.30;97.00;;;;;;5011595;28;20215;-65
2021/10/21 04:58:04;;;;;;;8.77;6.67;;;14.30;97.00;;;;;;5011879;28;20302;-65
2021/10/21 05:00:32;;;;;;;8.93;6.80;;;14.40;97.10;;;;;;5011926;28;20722;-65
2021/10/21 05:03:06;;;;;;;11.53;7.10;;;14.40;97.10;;;;;;5011364;28;20204;-66
2021/10/21 05:05:34;;;;;;;11.30;7.33;;;14.40;97.10;;;;;;5011775;28;20207;-68
2021/10/21 05:08:01;;;;;;;12.00;6.97;;;14.40;97.20;;;;;;5012022;28;20214;-68
2021/10/21 05:10:28;;;;;;;10.97;6.67;;;14.40;97.30;;;;;;5012734;28;20617;-69
2021/10/21 05:12:55;;;;;;;8.43;6.90;;;14.50;97.30;;;;;;5012012;28;20199;-69
2021/10/21 05:15:23;;;;;;;9.87;7.23;;;14.50;97.20;;;;;;5010776;28;20211;-69
2021/10/21 05:17:51;;;;;;;10.20;6.30;;;14.50;97.20;;;;;;5011159;28;20630;-68
2021/10/21 05:20:18;;;;;;;10.47;6.53;;;14.50;97.30;;;;;;5011550;28;20218;-67
2021/10/21 05:22:47;;;;;;;9.57;6.57;;;14.50;97.40;;;;;;5011668;28;20203;-69
2021/10/21 05:25:14;;;;;;;10.13;6.40;;;14.50;97.30;;;;;;5012976;28;20265;-68
2021/10/21 05:27:41;;;;;;;7.77;6.20;;;14.60;97.30;;;;;;5012386;28;20322;-69
2021/10/21 05:30:09;;;;;;;8.40;6.47;;;14.60;97.20;;;;;;5010958;28;20213;-69
2021/10/21 05:32:37;;;;;;;10.33;7.03;;;14.60;97.20;;;;;;5010498;28;20282;-68
2021/10/21 05:35:04;;;;;;;9.13;6.90;;;14.60;97.20;;;;;;5003671;28;20294;-68
2021/10/21 05:37:31;;;;;;;10.83;6.47;;;14.60;97.10;;;;;;5011358;28;20220;-67
2021/10/21 05:39:59;;;;;;;10.40;6.77;;;14.60;97.10;;;;;;5010616;28;20592;-67
2021/10/21 05:42:26;;;;;;;10.27;6.77;;;14.60;97.10;;;;;;5012966;28;20207;-70
2021/10/21 05:44:53;;;;;;;9.07;6.80;;;14.60;96.90;;;;;;5012524;28;20211;-70
2021/10/21 05:47:20;;;;;;;9.07;7.00;;;14.70;96.90;;;;;;5012639;28;20203;-68
2021/10/21 05:49:47;;;;;;;8.60;6.03;;;14.60;96.90;;;;;;5009078;28;20294;-67
2021/10/21 05:52:15;;;;;;;8.90;7.10;;;14.70;97.00;;;;;;5003750;28;20819;-68
2021/10/21 05:54:41;;;;;;;10.47;6.20;;;14.70;97.30;;;;;;5011478;28;20676;-68
2021/10/21 05:57:10;;;;;;;11.27;6.87;;;14.70;97.00;;;;;;5008865;28;20245;-69
2021/10/21 05:59:37;;;;;;;7.37;6.03;;;14.60;96.90;;;;;;5005941;28;20298;-69
2021/10/21 06:02:04;;;;;;;15.80;7.03;;;14.70;97.00;;;;;;5010125;28;20215;-68
2021/10/21 06:04:31;;;;;;;8.43;6.87;;;14.70;97.00;;;;;;5007621;28;20294;-69
2021/10/21 06:06:58;;;;;;;9.33;6.43;;;14.70;97.10;;;;;;5011526;28;20290;-70
2021/10/21 06:09:24;;;;;;;8.37;6.17;;;14.70;97.00;;;;;;5011866;28;20250;-70
2021/10/21 06:11:52;;;;;;;8.03;6.70;;;14.70;97.00;;;;;;5011434;28;20291;-69
2021/10/21 06:14:20;;;;;;;9.37;6.53;;;14.80;97.10;;;;;;5011236;28;20242;-67
2021/10/21 06:16:48;;;;;;;9.07;6.77;;;14.80;97.00;;;;;;5011843;28;20231;-67
2021/10/21 06:19:16;;;;;;;7.67;6.43;;;14.80;97.00;;;;;;5010889;28;20648;-67
2021/10/21 06:21:46;;;;;;;7.63;6.30;;;14.70;96.90;;;;;;5010158;28;20692;-68
2021/10/21 06:24:13;;;;;;;10.40;6.70;;;14.80;97.00;;;;;;5010110;28;20218;-68
2021/10/21 06:26:40;;;;;;;7.50;6.53;;;14.80;96.90;;;;;;5011044;28;20557;-69
2021/10/21 06:29:07;;;;;;;7.40;6.67;;;14.80;96.90;;;;;;5011062;28;20298;-68
2021/10/21 06:31:35;;;;;;;9.90;6.33;;;14.90;96.90;;;;;;5010524;28;20278;-65
2021/10/21 06:34:03;;;;;;;7.43;5.77;;;14.90;96.90;;;;;;5009072;28;20211;-68
2021/10/21 06:36:30;;;;;;;9.43;6.13;;;14.90;96.80;;;;;;5003514;28;20235;-68
2021/10/21 06:38:56;;;;;;;7.27;6.10;;;14.90;96.70;;;;;;5010178;28;20199;-68
2021/10/21 06:41:23;;;;;;;10.57;6.17;;;15.00;96.60;;;;;;5011186;28;20967;-68
2021/10/21 06:43:50;;;;;;;9.27;6.20;;;15.00;96.60;;;;;;5011271;28;20263;-68
2021/10/21 06:46:17;;;;;;;8.23;5.90;;;15.00;96.60;;;;;;5004294;28;20210;-68
2021/10/21 06:48:47;;;;;;;8.40;6.73;;;15.10;96.50;;;;;;5014890;28;20313;-67
2021/10/21 06:51:14;;;;;;;15.37;6.17;;;15.10;96.40;;;;;;5014966;28;20199;-68
2021/10/21 06:53:42;;;;;;;8.57;6.07;;;15.10;96.40;;;;;;5012064;28;20287;-68
2021/10/21 06:56:09;;;;;;;14.77;7.00;;;15.10;96.50;;;;;;5010918;28;20245;-66
2021/10/21 06:58:36;;;;;;;9.43;7.23;;;15.20;96.50;;;;;;5015260;28;20299;-66
2021/10/21 07:01:03;;;;;;;10.80;6.70;;;15.20;96.40;;;;;;5014231;28;20312;-66
2021/10/21 07:03:30;;;;;;;10.67;6.27;;;15.10;96.40;;;;;;5014510;28;20696;-67
2021/10/21 07:05:58;;;;;;;9.57;7.10;;;15.20;96.40;;;;;;5015140;28;20215;-67
2021/10/21 07:08:28;;;;;;;8.77;6.50;;;15.20;96.40;;;;;;5013572;28;20653;-68
2021/10/21 07:10:56;;;;;;;11.60;7.03;;;15.30;96.40;;;;;;5010872;28;20290;-66
2021/10/21 07:13:23;;;;;;;7.97;6.83;;;15.30;96.30;;;;;;5010057;28;20209;-69
2021/10/21 07:15:50;;;;;;;11.37;6.03;;;15.30;96.40;;;;;;5013715;28;20218;-68
2021/10/21 07:18:17;;;;;;;7.23;6.03;;;15.30;96.30;;;;;;5004218;28;20588;-67
2021/10/21 07:20:44;;;;;;;12.27;7.30;;;15.30;96.30;;;;;;5010308;28;20298;-68
2021/10/21 07:23:12;;;;;;;8.60;6.30;;;15.40;96.30;;;;;;5014763;28;20213;-69
2021/10/21 07:25:40;;;;;;;7.30;6.53;;;15.40;96.20;;;;;;5011907;28;20732;-69
2021/10/21 07:28:07;;;;;;;7.33;6.07;;;15.40;96.20;;;;;;5013167;28;20202;-69
2021/10/21 07:30:34;;;;;;;12.63;7.37;;;15.40;96.10;;;;;;5014399;28;20207;-68
2021/10/21 07:33:01;;;;;;;10.57;6.70;;;15.40;96.10;;;;;;5014572;28;20207;-68
2021/10/21 07:35:31;;;;;;;13.93;7.23;;;15.40;96.30;;;;;;5005888;28;20583;-68
2021/10/21 07:37:59;;;;;;;9.90;6.80;;;15.50;95.90;;;;;;5009207;28;20227;-68
2021/10/21 07:40:27;;;;;;;9.20;7.03;;;15.50;95.80;;;;;;5002092;28;20207;-68
2021/10/21 07:42:54;;;;;;;10.90;7.13;;;15.60;95.90;;;;;;5010891;28;20227;-69
2021/10/21 07:45:21;;;;;;;10.47;6.73;;;15.60;95.80;;;;;;5010373;28;20214;-69
2021/10/21 07:47:48;;;;;;;8.30;6.83;;;15.60;95.70;;;;;;5010892;28;20660;-69
2021/10/21 07:50:17;;;;;;;10.03;6.73;;;15.60;95.60;;;;;;5013306;28;20632;-70
2021/10/21 07:52:46;;;;;;;8.77;6.43;;;15.60;95.60;;;;;;5012125;28;20215;-69
2021/10/21 07:55:14;;;;;;;8.57;6.93;;;15.60;95.70;;;;;;5013497;28;20203;-67
2021/10/21 07:57:43;;;;;;;11.17;6.97;;;15.70;95.90;;;;;;5007023;28;20769;-68
2021/10/21 08:00:11;;;;;;;9.43;7.20;;;15.60;96.00;;;;;;5013098;28;20207;-67
2021/10/21 08:02:39;;;;;;;11.60;7.23;;;15.60;96.10;;;;;;5007042;28;20208;-68
2021/10/21 08:05:07;;;;;;;11.70;7.03;;;15.60;96.20;;;;;;5011671;28;20491;-68
2021/10/21 08:07:39;;;;;;;12.70;7.03;;;15.60;96.20;;;;;;5011731;28;20784;-69
2021/10/21 08:10:07;;;;;;;9.20;7.17;;;15.60;96.20;;;;;;5005124;28;20619;-69
2021/10/21 08:12:34;;;;;;;10.07;7.40;;;15.60;96.30;;;;;;5013685;28;20214;-70
2021/10/21 08:15:02;;;;;;;10.53;7.90;;;15.60;96.40;;;;;;5010693;28;20207;-69
2021/10/21 08:17:30;;;;;;;9.00;7.40;;;15.50;96.50;;;;;;5010311;28;20285;-71
2021/10/21 08:19:57;;;;;;;9.67;6.97;;;15.50;96.60;;;;;;5011280;28;20207;-69
2021/10/21 08:22:24;;;;;;;10.50;7.83;;;15.50;96.80;;;;;;5012631;28;20268;-69
2021/10/21 08:24:51;;;;;;;11.13;8.97;;;15.40;96.90;;;;;;5013325;28;20258;-69
2021/10/21 08:27:18;;;;;;;12.30;8.10;;;15.50;97.40;;;;;;5012780;28;20215;-70
2021/10/21 08:29:45;;;;;;;10.97;7.40;;;15.40;97.90;;;;;;5010525;28;20208;-69
2021/10/21 08:32:14;;;;;;;9.37;7.83;;;15.40;98.50;;;;;;5012791;28;20208;-70
2021/10/21 08:34:41;;;;;;;9.77;7.77;;;15.30;98.90;;;;;;5007752;28;20207;-69
2021/10/21 08:37:08;;;;;;;9.47;8.10;;;15.30;99.50;;;;;;5011405;28;20325;-69
2021/10/21 08:39:36;;;;;;;10.93;8.63;;;15.20;99.90;;;;;;5012735;28;20238;-69
2021/10/21 08:42:04;;;;;;;12.57;8.10;;;15.10;99.90;;;;;;5004603;28;20200;-68
2021/10/21 08:44:33;;;;;;;11.03;9.23;;;15.10;99.90;;;;;;5010218;28;20211;-69
2021/10/21 08:47:01;;;;;;;13.00;9.03;;;15.00;99.90;;;;;;5012712;28;20199;-68
2021/10/21 08:49:30;;;;;;;12.20;8.73;;;15.00;99.90;;;;;;5013611;28;20291;-69
2021/10/21 08:51:57;;;;;;;11.63;8.90;;;15.00;99.90;;;;;;5011775;28;20203;-69
2021/10/21 08:54:24;;;;;;;13.97;9.13;;;14.90;99.90;;;;;;5012865;28;20723;-69
2021/10/21 08:56:51;;;;;;;10.77;8.90;;;14.90;99.90;;;;;;5012507;28;20235;-69
2021/10/21 08:59:18;;;;;;;12.43;8.77;;;14.90;99.90;;;;;;5010806;28;20208;-69
2021/10/21 09:01:47;;;;;;;10.27;9.17;;;14.80;99.90;;;;;;5010787;28;20211;-67
2021/10/21 09:04:27;;;;;;;11.43;8.80;;;14.80;99.90;;;;;;5010682;28;20208;-67
2021/10/21 09:09:43;;;;;;;17.20;9.93;;;14.70;99.90;;;;;;5010258;28;20286;-67
2021/10/21 09:12:12;;;;;;;10.17;8.93;;;14.60;99.90;;;;;;5007236;28;20212;-68
2021/10/21 09:14:41;;;;;;;11.63;9.60;;;14.60;99.90;;;;;;5005300;28;20215;-67
2021/10/21 09:17:10;;;;;;;11.70;9.20;;;14.60;99.90;;;;;;5008923;28;20234;-67
2021/10/21 09:19:37;;;;;;;16.33;9.70;;;14.50;99.90;;;;;;5010391;28;20224;-68
2021/10/21 09:22:21;;;;;;;12.60;10.23;;;14.50;99.90;;;;;;5011196;28;20231;-68
2021/10/21 09:24:48;;;;;;;12.03;9.57;;;14.40;99.90;;;;;;5011224;28;20265;-67
2021/10/21 09:27:17;;;;;;;11.67;8.83;;;14.50;99.90;;;;;;5011591;28;20207;-67
2021/10/21 09:29:45;;;;;;;12.40;9.93;;;14.40;99.90;;;;;;5006979;28;20242;-69
2021/10/21 09:32:14;;;;;;;12.90;9.83;;;14.30;99.90;;;;;;5007783;28;20214;-68
2021/10/21 09:34:50;;;;;;;13.83;10.63;;;14.20;99.90;;;;;;5011397;28;20207;-68
2021/10/21 09:37:21;;;;;;;12.43;9.40;;;14.20;99.90;;;;;;5011767;28;20223;-70
2021/10/21 09:39:51;;;;;;;15.50;11.20;;;14.10;99.90;;;;;;5017279;28;20199;-71
2021/10/21 09:42:18;;;;;;;12.33;10.43;;;14.10;99.90;;;;;;5006108;28;20204;-69
2021/10/21 09:44:46;;;;;;;14.20;10.33;;;14.10;99.90;;;;;;5009489;28;20689;-69
2021/10/21 09:47:19;;;;;;;12.77;10.37;;;14.10;99.90;;;;;;5014391;28;20211;-69
2021/10/21 09:49:47;;;;;;;13.33;10.43;;;14.00;99.90;;;;;;5013459;28;20298;-68
2021/10/21 09:52:16;;;;;;;12.47;10.77;;;14.00;99.90;;;;;;5012458;28;20227;-68
2021/10/21 09:54:45;;;;;;;12.93;11.10;;;14.00;99.90;;;;;;5013055;28;20604;-68
2021/10/21 09:57:17;;;;;;;14.70;11.20;;;13.90;99.90;;;;;;4996012;28;20286;-69
2021/10/21 09:59:44;;;;;;;11.90;10.70;;;13.90;99.90;;;;;;5005542;28;20222;-68
2021/10/21 10:02:15;;;;;;;12.17;10.67;;;13.90;99.90;;;;;;5008385;28;20211;-67
2021/10/21 10:04:45;;;;;;;13.00;11.27;;;13.90;99.90;;;;;;5011059;28;20203;-67
2021/10/21 10:07:13;;;;;;;15.93;12.13;;;13.90;99.90;;;;;;5010088;28;20322;-69
2021/10/21 10:09:40;;;;;;;15.73;11.17;;;14.00;99.90;;;;;;5011348;28;20594;-68
2021/10/21 10:12:08;;;;;;;13.90;10.60;;;14.00;99.90;;;;;;5011086;28;20616;-69
2021/10/21 10:14:40;;;;;;;15.33;11.70;;;14.00;99.90;;;;;;5011843;28;20301;-68
2021/10/21 10:17:07;;;;;;;13.97;10.93;;;14.00;99.90;;;;;;5009946;28;20231;-69
2021/10/21 10:19:34;;;;;;;13.73;11.20;;;14.10;99.90;;;;;;5010619;28;20211;-67
2021/10/21 10:22:06;;;;;;;13.70;11.07;;;14.10;99.90;;;;;;5012532;28;20303;-68
2021/10/21 10:24:34;;;;;;;15.27;11.40;;;14.10;99.90;;;;;;5011550;28;20633;-66
2021/10/21 10:27:03;;;;;;;16.67;11.43;;;14.10;99.90;;;;;;5012816;28;20223;-69
2021/10/21 10:29:46;;;;;;;14.30;11.60;;;14.20;99.90;;;;;;5012717;28;20211;-70
2021/10/21 10:32:34;;;;;;;12.90;10.80;;;14.20;99.90;;;;;;5012228;28;20200;-69
2021/10/21 10:35:03;;;;;;;15.53;11.50;;;14.20;99.90;;;;;;5007536;28;20209;-69
2021/10/21 10:37:53;;;;;;;12.17;9.90;;;14.20;99.90;;;;;;5012668;28;20235;-69
2021/10/21 10:40:36;;;;;;;13.00;10.83;;;14.20;99.90;;;;;;5009827;28;20207;-68
2021/10/21 10:43:04;;;;;;;16.30;11.47;;;14.20;99.90;;;;;;5012380;28;20221;-69
2021/10/21 10:45:47;;;;;;;11.93;10.30;;;14.30;99.90;;;;;;5010466;28;20211;-69
2021/10/21 10:48:15;;;;;;;13.03;10.87;;;14.30;99.90;;;;;;5011047;28;20671;-68
2021/10/21 10:50:53;;;;;;;12.93;10.87;;;14.40;99.90;;;;;;5012132;28;20295;-68
2021/10/21 10:53:51;;;;;;;12.17;10.13;;;14.40;99.90;;;;;;5012091;28;20512;-68
2021/10/21 10:56:41;;;;;;;16.57;11.13;;;14.40;99.90;;;;;;5003344;28;20688;-68
2021/10/21 10:59:31;;;;;;;12.93;10.73;;;14.50;99.90;;;;;;5012945;28;21014;-68
2021/10/21 11:02:01;;;;;;;13.43;11.13;;;14.60;99.90;;;;;;5007940;28;20207;-67
2021/10/21 11:04:59;;;;;;;14.83;10.70;;;14.60;99.90;;;;;;5010098;28;20199;-68
2021/10/21 11:07:27;;;;;;;11.87;9.97;;;14.60;99.90;;;;;;5010116;28;20225;-67
2021/10/21 11:09:55;;;;;;;11.80;10.33;;;14.70;99.90;;;;;;5013073;28;20239;-68
2021/10/21 11:12:23;;;;;;;12.37;10.40;;;14.70;99.90;;;;;;5010459;28;20247;-67
2021/10/21 11:14:55;;;;;;;14.40;9.77;;;14.70;99.90;;;;;;5009513;28;20207;-68
2021/10/21 11:17:42;;;;;;;15.07;10.17;;;14.80;99.90;;;;;;5009893;28;20212;-67
2021/10/21 11:20:39;;;;;;;14.53;9.73;;;14.80;99.90;;;;;;4998351;28;20320;-67
2021/10/21 11:23:07;;;;;;;12.70;9.83;;;15.30;99.90;;;;;;5008496;28;20219;-69
2021/10/21 11:25:37;;;;;;;13.97;9.33;;;14.90;99.90;;;;;;5009435;28;20208;-69
2021/10/21 11:28:05;;;;;;;10.87;9.13;;;14.90;99.90;;;;;;5009800;28;20652;-68
2021/10/21 11:30:34;;;;;;;17.10;10.43;;;14.90;99.90;;;;;;5010931;28;20226;-67
2021/10/21 11:33:04;;;;;;;10.27;9.17;;;15.00;99.90;;;;;;5009679;28;20302;-65
2021/10/21 11:35:33;;;;;;;12.73;9.40;;;14.90;99.90;;;;;;5014116;28;20630;-66
2021/10/21 11:38:01;;;;;;;10.33;8.97;;;15.10;99.90;;;;;;5013763;28;20235;-68
2021/10/21 11:40:31;;;;;;;11.97;9.27;;;15.20;99.90;;;;;;5014748;28;20294;-67
2021/10/21 11:43:00;;;;;;;13.73;9.67;;;15.20;99.90;;;;;;5014331;28;20215;-67
2021/10/21 11:45:29;;;;;;;13.63;8.43;;;15.20;99.90;;;;;;5012289;28;20243;-67
2021/10/21 11:47:58;;;;;;;9.83;8.20;;;15.30;99.90;;;;;;5013233;28;20214;-67
2021/10/21 11:50:38;;;;;;;10.63;8.77;;;15.30;99.90;;;;;;5011453;28;20208;-66
2021/10/21 11:53:06;;;;;;;9.53;7.87;;;15.40;99.90;;;;;;5014085;28;20683;-69
2021/10/21 11:55:34;;;;;;;9.70;8.20;;;15.40;99.90;;;;;;5013084;28;20598;-68
2021/10/21 11:58:10;;;;;;;12.23;8.10;;;15.50;99.90;;;;;;5013706;28;20274;-68
2021/10/21 12:00:38;;;;;;;15.57;7.70;;;15.60;99.90;;;;;;5001906;28;20696;-70
2021/10/21 12:03:05;;;;;;;10.80;7.90;;;15.70;99.90;;;;;;5012877;28;20691;-70
2021/10/21 12:05:34;;;;;;;11.53;7.87;;;15.70;99.90;;;;;;5003652;28;20641;-70
2021/10/21 12:08:02;;;;;;;12.03;7.83;;;15.70;99.90;;;;;;5012398;28;20720;-69
2021/10/21 12:10:31;;;;;;;8.97;8.07;;;15.80;99.90;;;;;;5012961;28;20570;-70
2021/10/21 12:12:59;;;;;;;8.90;7.90;;;15.80;99.90;;;;;;5012338;28;20218;-71
2021/10/21 12:15:28;;;;;;;8.87;7.03;;;15.90;99.90;;;;;;5010014;28;20238;-70
2021/10/21 12:17:55;;;;;;;14.23;7.80;;;16.00;99.90;;;;;;5012897;28;20213;-71
2021/10/21 12:20:30;;;;;;;11.60;7.57;;;16.10;99.90;;;;;;5013493;28;20653;-70
2021/10/21 12:22:57;;;;;;;9.60;6.70;;;16.20;99.90;;;;;;5010292;28;20210;-70
2021/10/21 12:25:35;;;;;;;7.53;6.30;;;16.30;99.90;;;;;;5013465;28;20203;-71
2021/10/21 12:28:02;;;;;;;8.83;7.00;;;16.40;99.90;;;;;;5012465;28;20221;-73
2021/10/21 12:30:34;;;;;;;8.23;6.50;;;16.40;99.90;;;;;;5012711;28;20647;-70
2021/10/21 12:33:12;;;;;;;8.07;6.70;;;16.60;99.90;;;;;;5012880;28;20234;-70
2021/10/21 12:35:55;;;;;;;7.90;6.70;;;16.70;99.90;;;;;;5004699;28;20324;-71
2021/10/21 12:38:22;;;;;;;8.33;6.13;;;16.90;99.90;;;;;;5012721;28;20310;-71
2021/10/21 12:40:58;;;;;;;9.77;6.73;;;16.90;99.90;;;;;;5012925;28;20208;-70
2021/10/21 12:43:27;;;;;;;7.33;6.00;;;17.00;99.90;;;;;;5011766;28;20274;-69
2021/10/21 12:45:54;;;;;;;6.50;5.37;;;17.00;99.90;;;;;;5007560;28;20225;-70
2021/10/21 12:48:26;;;;;;;8.07;6.10;;;17.00;99.90;;;;;;5012226;28;20214;-70
2021/10/21 12:50:54;;;;;;;10.87;5.07;;;17.00;99.90;;;;;;5012822;28;20668;-69